createdAt,value
2019-01-30T00:01:54.200Z,11.67
2019-01-30T00:04:24.742Z,10.87
2019-01-30T00:06:54.827Z,10.77
2019-01-30T00:09:26.042Z,9.97
2019-01-30T00:11:56.096Z,12.53
2019-01-30T00:14:26.145Z,10.90
2019-01-30T00:16:56.196Z,11.50
2019-01-30T00:19:26.239Z,10.40
2019-01-30T00:21:56.306Z,12.87
2019-01-30T00:24:26.352Z,12.03
2019-01-30T00:26:56.408Z,14.73
2019-01-30T00:29:26.453Z,14.47
2019-01-30T00:31:56.507Z,12.27
2019-01-30T00:34:26.552Z,12.97
2019-01-30T00:36:56.621Z,13.00
2019-01-30T00:39:26.668Z,11.67
2019-01-30T00:41:56.722Z,12.33
2019-01-30T00:44:26.772Z,10.97
2019-01-30T00:46:56.818Z,9.83
2019-01-30T00:49:26.908Z,13.17
2019-01-30T00:51:56.955Z,14.63
2019-01-30T00:54:32.177Z,18.37
2019-01-30T00:57:00.147Z,12.73
2019-01-30T00:59:30.208Z,12.13
2019-01-30T01:02:00.251Z,11.40
2019-01-30T01:04:30.307Z,12.33
2019-01-30T01:07:00.358Z,10.67
2019-01-30T01:09:30.403Z,12.00
2019-01-30T01:12:00.448Z,13.27
2019-01-30T01:14:30.509Z,10.83
2019-01-30T01:17:00.552Z,13.57
2019-01-30T01:19:30.619Z,12.37
2019-01-30T01:22:00.666Z,13.00
2019-01-30T01:24:30.720Z,11.17
2019-01-30T01:27:00.760Z,13.27
2019-01-30T01:29:30.825Z,13.00
2019-01-30T01:32:00.873Z,10.30
2019-01-30T01:34:30.931Z,15.03
2019-01-30T01:37:00.972Z,15.53
2019-01-30T01:39:31.282Z,9.83
2019-01-30T01:42:01.334Z,12.37
2019-01-30T01:44:31.408Z,13.47
2019-01-30T01:47:01.454Z,12.57
2019-01-30T01:49:31.510Z,12.10
2019-01-30T01:52:01.554Z,13.90
2019-01-30T01:54:31.667Z,14.20
2019-01-30T01:57:01.717Z,11.57
2019-01-30T01:59:31.789Z,12.53
2019-01-30T02:02:01.841Z,15.13
2019-01-30T02:04:31.896Z,11.13
2019-01-30T02:07:01.949Z,13.27
2019-01-30T02:09:32.041Z,14.13
2019-01-30T02:12:02.172Z,14.00
2019-01-30T02:14:32.241Z,13.17
2019-01-30T02:17:02.325Z,14.47
2019-01-30T02:19:32.380Z,15.07
2019-01-30T02:22:02.426Z,16.80
2019-01-30T02:24:32.480Z,13.13
2019-01-30T02:27:02.843Z,15.60
2019-01-30T02:29:32.908Z,15.23
2019-01-30T02:32:02.955Z,14.20
2019-01-30T02:34:33.013Z,17.33
2019-01-30T02:37:03.080Z,14.53
2019-01-30T02:39:33.128Z,15.10
2019-01-30T02:42:03.171Z,16.13
2019-01-30T02:44:33.232Z,15.50
2019-01-30T02:47:03.275Z,15.23
2019-01-30T02:49:33.334Z,17.63
2019-01-30T02:52:03.386Z,19.47
2019-01-30T02:54:33.459Z,14.90
2019-01-30T02:57:03.515Z,16.67
2019-01-30T02:59:33.589Z,17.07
2019-01-30T03:02:05.293Z,14.50
2019-01-30T03:04:35.340Z,17.47
2019-01-30T03:07:05.386Z,15.50
2019-01-30T03:09:35.733Z,16.63
2019-01-30T03:12:05.785Z,16.07
2019-01-30T03:14:35.833Z,17.70
2019-01-30T03:17:05.893Z,15.73
2019-01-30T03:19:35.948Z,18.53
2019-01-30T03:22:05.995Z,13.00
2019-01-30T03:24:36.052Z,14.97
2019-01-30T03:27:06.105Z,14.93
2019-01-30T03:29:36.164Z,14.27
2019-01-30T03:32:06.496Z,16.67
2019-01-30T03:34:36.546Z,21.23
2019-01-30T03:37:06.593Z,16.80
2019-01-30T03:39:36.682Z,18.30
2019-01-30T03:42:06.730Z,15.37
2019-01-30T03:44:36.788Z,18.87
2019-01-30T03:47:06.833Z,16.50
2019-01-30T03:49:36.890Z,17.03
2019-01-30T03:52:06.932Z,14.63
2019-01-30T03:54:36.989Z,18.50
2019-01-30T03:57:07.034Z,15.60
2019-01-30T03:59:37.093Z,14.97
2019-01-30T04:02:07.139Z,16.57
2019-01-30T04:04:37.415Z,13.47
2019-01-30T04:07:07.471Z,14.60
2019-01-30T04:09:37.528Z,15.33
2019-01-30T04:12:07.574Z,13.73
2019-01-30T04:14:37.637Z,16.13
2019-01-30T04:17:07.683Z,16.40
2019-01-30T04:19:37.732Z,15.10
2019-01-30T04:22:07.780Z,15.57
2019-01-30T04:24:37.840Z,14.37
2019-01-30T04:27:07.889Z,13.87
2019-01-30T04:29:38.135Z,18.03
2019-01-30T04:32:08.216Z,17.10
2019-01-30T04:34:38.272Z,13.40
2019-01-30T04:37:08.318Z,15.20
2019-01-30T04:39:38.386Z,16.97
2019-01-30T04:42:08.437Z,17.43
2019-01-30T04:44:38.492Z,13.77
2019-01-30T04:47:08.537Z,17.60
2019-01-30T04:49:38.601Z,16.33
2019-01-30T04:52:08.657Z,15.13
2019-01-30T04:54:38.717Z,15.27
2019-01-30T04:57:08.760Z,17.47
2019-01-30T04:59:38.819Z,15.03
2019-01-30T05:02:08.866Z,18.07
2019-01-30T05:04:38.923Z,15.73
2019-01-30T05:07:08.967Z,17.53
2019-01-30T05:09:39.019Z,16.50
2019-01-30T05:12:09.065Z,15.53
2019-01-30T05:14:39.142Z,16.30
2019-01-30T05:17:09.192Z,15.37
2019-01-30T05:19:39.247Z,14.87
2019-01-30T05:22:09.302Z,18.47
2019-01-30T05:24:39.400Z,17.40
2019-01-30T05:27:09.443Z,15.60
2019-01-30T05:29:39.498Z,16.60
2019-01-30T05:32:09.549Z,17.33
2019-01-30T05:34:39.609Z,16.20
2019-01-30T05:37:09.668Z,14.97
2019-01-30T05:39:39.724Z,15.07
2019-01-30T05:42:09.786Z,17.90
2019-01-30T05:44:39.832Z,16.07
2019-01-30T05:47:09.886Z,15.10
2019-01-30T05:49:39.940Z,16.87
2019-01-30T05:52:10.013Z,17.67
2019-01-30T05:54:40.097Z,19.83
2019-01-30T05:57:11.317Z,22.67
2019-01-30T05:59:41.423Z,17.97
2019-01-30T06:02:12.545Z,16.83
2019-01-30T06:04:42.705Z,16.33
2019-01-30T06:07:12.761Z,18.97
2019-01-30T06:09:42.814Z,16.97
2019-01-30T06:12:12.864Z,17.57
2019-01-30T06:14:42.908Z,13.93
2019-01-30T06:17:12.968Z,17.77
2019-01-30T06:19:43.019Z,18.07
2019-01-30T06:22:13.081Z,15.13
2019-01-30T06:24:43.126Z,18.20
2019-01-30T06:27:13.187Z,15.63
2019-01-30T06:29:43.225Z,14.73
2019-01-30T06:32:21.670Z,17.10
2019-01-30T06:34:45.030Z,17.60
2019-01-30T06:37:15.116Z,15.17
2019-01-30T06:39:45.162Z,15.30
2019-01-30T06:42:15.393Z,16.33
2019-01-30T06:44:45.439Z,24.93
2019-01-30T06:47:15.502Z,16.90
2019-01-30T06:49:45.549Z,17.00
2019-01-30T06:52:15.610Z,16.63
2019-01-30T06:54:45.652Z,15.37
2019-01-30T06:57:15.709Z,15.47
2019-01-30T06:59:45.761Z,17.87
2019-01-30T07:02:15.810Z,16.97
2019-01-30T07:04:45.856Z,15.73
2019-01-30T07:07:15.906Z,16.20
2019-01-30T07:09:45.984Z,16.87
2019-01-30T07:12:16.018Z,19.53
2019-01-30T07:14:46.073Z,17.40
2019-01-30T07:17:16.118Z,16.60
2019-01-30T07:19:46.171Z,19.10
2019-01-30T07:22:16.220Z,19.23
2019-01-30T07:24:46.281Z,18.10
2019-01-30T07:27:16.325Z,19.30
2019-01-30T07:29:46.390Z,21.17
2019-01-30T07:32:16.442Z,16.83
2019-01-30T07:34:46.505Z,14.93
2019-01-30T07:37:16.542Z,18.43
2019-01-30T07:39:46.597Z,18.50
2019-01-30T07:42:16.644Z,17.53
2019-01-30T07:44:50.849Z,15.57
2019-01-30T07:47:18.444Z,16.00
2019-01-30T07:49:48.550Z,17.00
2019-01-30T07:52:23.429Z,21.30
2019-01-30T07:54:53.498Z,35.30
2019-01-30T07:57:23.562Z,18.80
2019-01-30T07:59:53.613Z,19.87
2019-01-30T08:02:23.678Z,18.43
2019-01-30T08:04:54.709Z,17.47
2019-01-30T08:07:27.610Z,20.00
2019-01-30T08:09:56.792Z,18.80
2019-01-30T08:12:26.835Z,17.93
2019-01-30T08:14:56.889Z,21.10
2019-01-30T08:17:26.937Z,15.47
2019-01-30T08:19:57.019Z,17.50
2019-01-30T08:22:27.069Z,19.53
2019-01-30T08:24:57.131Z,17.67
2019-01-30T08:27:27.353Z,19.07
2019-01-30T08:29:57.465Z,17.23
2019-01-30T08:32:28.192Z,20.83
2019-01-30T08:34:58.273Z,15.43
2019-01-30T08:37:28.321Z,19.20
2019-01-30T08:39:58.376Z,16.57
2019-01-30T08:42:28.429Z,17.90
2019-01-30T08:44:58.491Z,17.23
2019-01-30T08:47:28.532Z,15.40
2019-01-30T08:49:58.740Z,16.30
2019-01-30T08:52:28.789Z,17.13
2019-01-30T08:54:58.845Z,17.17
2019-01-30T08:57:28.887Z,15.90
2019-01-30T08:59:59.010Z,16.67
2019-01-30T09:02:29.095Z,19.70
2019-01-30T09:04:59.164Z,17.20
2019-01-30T09:07:29.220Z,16.97
2019-01-30T09:09:59.281Z,16.70
2019-01-30T09:12:29.332Z,19.60
2019-01-30T09:14:59.393Z,16.47
2019-01-30T09:17:29.440Z,15.60
2019-01-30T09:19:59.496Z,16.93
2019-01-30T09:22:29.545Z,16.80
2019-01-30T09:24:59.597Z,18.07
2019-01-30T09:27:30.719Z,17.93
2019-01-30T09:30:00.778Z,18.17
2019-01-30T09:32:30.828Z,18.03
2019-01-30T09:35:00.906Z,19.30
2019-01-30T09:37:31.105Z,22.87
2019-01-30T09:40:01.216Z,18.57
2019-01-30T09:42:31.218Z,15.63
2019-01-30T09:45:01.279Z,16.93
2019-01-30T09:47:31.346Z,17.83
2019-01-30T09:50:01.375Z,16.50
2019-01-30T09:52:31.447Z,17.77
2019-01-30T09:55:01.481Z,16.10
2019-01-30T09:57:31.541Z,19.35
2019-01-30T10:00:01.596Z,16.97
2019-01-30T10:02:31.645Z,15.68
2019-01-30T10:05:01.688Z,16.07
2019-01-30T10:07:31.757Z,16.97
2019-01-30T10:10:01.793Z,13.83
2019-01-30T10:12:31.844Z,16.52
2019-01-30T10:15:01.909Z,14.93
2019-01-30T10:17:31.953Z,15.93
2019-01-30T10:20:02.014Z,17.90
2019-01-30T10:22:32.060Z,15.15
2019-01-30T10:25:02.123Z,16.73
2019-01-30T10:27:32.175Z,18.70
2019-01-30T10:30:02.231Z,14.13
2019-01-30T10:32:32.349Z,16.17
2019-01-30T10:35:02.404Z,16.85
2019-01-30T10:37:32.454Z,18.00
2019-01-30T10:40:03.273Z,17.80
2019-01-30T10:42:33.329Z,17.67
2019-01-30T10:45:04.045Z,15.10
2019-01-30T10:47:34.096Z,16.97
2019-01-30T10:50:10.857Z,14.68
2019-01-30T10:52:40.920Z,17.07
2019-01-30T10:55:15.940Z,16.55
2019-01-30T10:57:48.420Z,15.00
2019-01-30T11:00:31.769Z,11.97
2019-01-30T11:03:01.825Z,15.10
2019-01-30T11:05:31.872Z,16.42
2019-01-30T11:08:01.936Z,15.08
2019-01-30T11:10:31.980Z,17.15
2019-01-30T11:13:02.057Z,17.17
2019-01-30T11:15:32.096Z,23.32
2019-01-30T11:18:02.157Z,17.27
2019-01-30T11:20:32.206Z,16.87
2019-01-30T11:23:02.273Z,16.02
2019-01-30T11:25:42.550Z,22.22
2019-01-30T11:28:12.933Z,19.35
2019-01-30T11:30:42.921Z,16.17
2019-01-30T11:33:12.984Z,18.10
2019-01-30T11:35:43.037Z,19.85
2019-01-30T11:38:13.114Z,17.07
2019-01-30T11:40:43.161Z,16.67
2019-01-30T11:43:14.858Z,17.62
2019-01-30T11:45:45.643Z,18.37
2019-01-30T11:48:15.711Z,18.05
2019-01-30T11:50:45.759Z,17.45
2019-01-30T11:53:15.816Z,20.20
2019-01-30T11:55:45.870Z,23.62
2019-01-30T11:58:16.100Z,17.12
2019-01-30T12:00:47.791Z,19.23
2019-01-30T12:03:17.848Z,17.45
2019-01-30T12:05:47.896Z,19.60
2019-01-30T12:08:18.020Z,18.87
2019-01-30T12:10:48.073Z,18.25
2019-01-30T12:13:18.127Z,19.80
2019-01-30T12:15:48.172Z,19.27
2019-01-30T12:18:18.224Z,19.02
2019-01-30T12:20:48.281Z,17.92
2019-01-30T12:23:18.328Z,17.12
2019-01-30T12:25:48.400Z,17.50
2019-01-30T12:28:18.461Z,19.17
2019-01-30T12:30:48.532Z,20.72
2019-01-30T12:33:18.575Z,20.30
2019-01-30T12:35:48.636Z,17.48
2019-01-30T12:38:18.694Z,21.65
2019-01-30T12:40:49.822Z,18.67
2019-01-30T12:43:19.847Z,21.27
2019-01-30T12:45:49.899Z,19.35
2019-01-30T12:48:19.953Z,16.70
2019-01-30T12:50:50.008Z,19.62
2019-01-30T12:53:20.053Z,18.05
2019-01-30T12:55:50.117Z,17.82
2019-01-30T12:58:20.160Z,21.77
2019-01-30T13:00:50.317Z,20.70
2019-01-30T13:03:20.345Z,21.73
2019-01-30T13:05:50.406Z,19.60
2019-01-30T13:08:22.081Z,21.10
2019-01-30T13:10:52.138Z,21.87
2019-01-30T13:13:22.190Z,21.93
2019-01-30T13:15:52.251Z,20.68
2019-01-30T13:18:22.304Z,18.98
2019-01-30T13:20:52.374Z,23.12
2019-01-30T13:23:22.426Z,22.70
2019-01-30T13:25:56.222Z,23.30
2019-01-30T13:28:26.418Z,20.20
2019-01-30T13:30:58.432Z,21.20
2019-01-30T13:33:28.629Z,21.73
2019-01-30T13:35:58.736Z,28.00
2019-01-30T13:38:28.788Z,21.27
2019-01-30T13:40:58.848Z,26.50
2019-01-30T13:43:28.898Z,21.33
2019-01-30T13:46:05.268Z,21.23
2019-01-30T13:48:31.597Z,18.30
2019-01-30T13:51:01.742Z,20.85
2019-01-30T13:53:31.798Z,20.08
2019-01-30T13:56:01.878Z,31.55
2019-01-30T13:58:31.901Z,20.48
2019-01-30T14:01:01.968Z,26.60
2019-01-30T14:03:32.015Z,22.93
2019-01-30T14:06:02.110Z,20.68
2019-01-30T14:08:32.163Z,23.22
2019-01-30T14:11:02.225Z,22.10
2019-01-30T14:13:32.269Z,19.82
2019-01-30T14:16:02.329Z,22.65
2019-01-30T14:18:32.385Z,22.02
2019-01-30T14:21:02.440Z,25.32
2019-01-30T14:23:32.487Z,21.00
2019-01-30T14:26:02.557Z,24.70
2019-01-30T14:28:32.606Z,24.35
2019-01-30T14:31:02.663Z,23.55
2019-01-30T14:33:32.744Z,26.62
2019-01-30T14:36:02.819Z,25.92
2019-01-30T14:38:32.842Z,24.00
2019-01-30T14:41:02.897Z,23.30
2019-01-30T14:43:33.025Z,24.80
2019-01-30T14:46:03.484Z,25.40
2019-01-30T14:48:33.538Z,25.45
2019-01-30T14:51:03.573Z,24.55
2019-01-30T14:53:33.952Z,21.70
2019-01-30T14:56:04.029Z,27.55
2019-01-30T14:58:34.053Z,29.10
2019-01-30T15:01:04.513Z,33.45
2019-01-30T15:03:34.554Z,25.70
2019-01-30T15:06:04.787Z,28.50
2019-01-30T15:08:34.944Z,25.80
2019-01-30T15:11:04.977Z,28.47
2019-01-30T15:13:35.005Z,27.35
2019-01-30T15:16:05.108Z,27.45
2019-01-30T15:18:35.206Z,26.85
2019-01-30T15:21:05.252Z,25.88
2019-01-30T15:23:35.346Z,25.45
2019-01-30T15:26:05.362Z,28.60
2019-01-30T15:28:35.415Z,26.55
2019-01-30T15:31:05.555Z,27.15
2019-01-30T15:33:35.606Z,26.90
2019-01-30T15:36:05.665Z,29.10
2019-01-30T15:38:35.737Z,28.07
2019-01-30T15:41:05.796Z,28.38
2019-01-30T15:43:35.850Z,30.00
2019-01-30T15:46:05.912Z,27.48
2019-01-30T15:48:36.064Z,27.35
2019-01-30T15:51:06.130Z,26.37
2019-01-30T15:53:36.184Z,27.20
2019-01-30T15:56:06.684Z,29.67
2019-01-30T15:58:36.733Z,27.40
2019-01-30T16:01:11.363Z,50.00
2019-01-30T16:03:41.414Z,39.60
2019-01-30T16:06:11.483Z,30.75
2019-01-30T16:08:41.577Z,48.60
2019-01-30T16:11:11.683Z,83.52
2019-01-30T16:13:41.803Z,35.05
2019-01-30T16:16:11.896Z,26.87
2019-01-30T16:18:41.946Z,29.63
2019-01-30T16:21:12.009Z,32.20
2019-01-30T16:23:42.091Z,29.07
2019-01-30T16:26:12.157Z,28.47
2019-01-30T16:28:42.209Z,29.17
2019-01-30T16:31:12.281Z,28.80
2019-01-30T16:33:42.737Z,28.23
2019-01-30T16:36:12.809Z,27.77
2019-01-30T16:38:42.859Z,31.47
2019-01-30T16:41:13.065Z,28.10
2019-01-30T16:43:43.114Z,27.60
2019-01-30T16:46:13.810Z,29.40
2019-01-30T16:48:43.930Z,30.67
2019-01-30T16:51:13.997Z,28.67
2019-01-30T16:53:44.062Z,28.20
2019-01-30T16:56:14.131Z,30.30
2019-01-30T16:58:44.289Z,31.43
2019-01-30T17:01:14.385Z,31.50
2019-01-30T17:03:44.437Z,27.03
2019-01-30T17:06:14.514Z,29.43
2019-01-30T17:08:44.558Z,33.60
2019-01-30T17:11:14.622Z,29.43
2019-01-30T17:13:44.675Z,31.03
2019-01-30T17:16:14.737Z,30.47
2019-01-30T17:18:44.817Z,31.13
2019-01-30T17:21:14.963Z,69.70
2019-01-30T17:23:45.013Z,33.97
2019-01-30T17:26:15.081Z,33.80
2019-01-30T17:28:45.143Z,31.77
2019-01-30T17:31:15.205Z,33.60
2019-01-30T17:33:45.251Z,34.30
2019-01-30T17:36:18.641Z,31.17
2019-01-30T17:38:47.062Z,34.63
2019-01-30T17:41:17.130Z,31.13
2019-01-30T17:43:47.177Z,29.87
2019-01-30T17:46:17.237Z,27.03
2019-01-30T17:48:48.817Z,28.20
2019-01-30T17:51:19.025Z,28.73
2019-01-30T17:53:50.142Z,34.27
2019-01-30T17:56:20.209Z,34.03
2019-01-30T17:58:50.252Z,35.00
2019-01-30T18:01:20.313Z,30.97
2019-01-30T18:03:50.356Z,30.63
2019-01-30T18:06:29.584Z,49.97
2019-01-30T18:08:52.162Z,33.70
2019-01-30T18:11:22.222Z,31.67
2019-01-30T18:13:52.270Z,33.53
2019-01-30T18:16:22.333Z,32.57
2019-01-30T18:18:52.381Z,28.93
2019-01-30T18:21:22.441Z,30.50
2019-01-30T18:23:52.492Z,29.63
2019-01-30T18:26:22.554Z,33.13
2019-01-30T18:28:52.598Z,35.00
2019-01-30T18:31:22.663Z,34.60
2019-01-30T18:33:53.980Z,39.10
2019-01-30T18:36:24.152Z,39.03
2019-01-30T18:38:54.196Z,43.33
2019-01-30T18:41:24.251Z,39.73
2019-01-30T18:43:54.298Z,41.57
2019-01-30T18:46:24.362Z,37.60
2019-01-30T18:48:54.427Z,34.87
2019-01-30T18:51:24.537Z,36.43
2019-01-30T18:53:54.595Z,40.37
2019-01-30T18:56:25.721Z,42.70
2019-01-30T18:58:56.976Z,44.13
2019-01-30T19:01:27.112Z,46.33
2019-01-30T19:03:57.161Z,44.07
2019-01-30T19:06:27.213Z,39.33
2019-01-30T19:08:57.264Z,38.33
2019-01-30T19:11:27.362Z,41.80
2019-01-30T19:13:57.432Z,36.47
2019-01-30T19:16:27.519Z,37.23
2019-01-30T19:18:57.586Z,36.03
2019-01-30T19:21:27.634Z,32.77
2019-01-30T19:23:57.693Z,30.23
2019-01-30T19:26:27.736Z,30.97
2019-01-30T19:28:57.790Z,28.67
2019-01-30T19:31:27.837Z,31.40
2019-01-30T19:33:57.889Z,31.40
2019-01-30T19:36:27.946Z,25.90
2019-01-30T19:38:58.251Z,25.43
2019-01-30T19:41:28.300Z,26.97
2019-01-30T19:43:58.353Z,23.53
2019-01-30T19:46:28.406Z,23.97
2019-01-30T19:48:58.807Z,26.17
2019-01-30T19:51:29.173Z,25.17
2019-01-30T19:53:59.174Z,24.07
2019-01-30T19:56:30.146Z,25.70
2019-01-30T19:59:00.197Z,25.47
2019-01-30T20:01:36.329Z,24.90
2019-01-30T20:04:01.993Z,22.93
2019-01-30T20:06:32.145Z,21.93
2019-01-30T20:09:03.836Z,23.57
2019-01-30T20:11:33.889Z,24.50
2019-01-30T20:14:03.950Z,16.53
2019-01-30T20:16:34.001Z,12.63
2019-01-30T20:19:04.047Z,12.30
2019-01-30T20:21:34.097Z,13.73
2019-01-30T20:24:04.141Z,14.20
2019-01-30T20:26:34.233Z,10.87
2019-01-30T20:29:04.595Z,8.90
2019-01-30T20:31:34.644Z,16.77
2019-01-30T20:34:10.278Z,11.23
2019-01-30T20:36:37.324Z,13.10
2019-01-30T20:39:07.516Z,9.80
2019-01-30T20:41:38.528Z,12.73
2019-01-30T20:44:08.579Z,8.13
2019-01-30T20:46:38.622Z,8.97
2019-01-30T20:49:08.914Z,8.53
2019-01-30T20:51:38.951Z,9.23
2019-01-30T20:54:08.992Z,9.37
2019-01-30T20:56:39.027Z,7.17
2019-01-30T20:59:09.074Z,9.27
2019-01-30T21:01:39.118Z,6.07
2019-01-30T21:04:09.164Z,6.13
2019-01-30T21:06:39.638Z,6.77
2019-01-30T21:09:09.678Z,8.73
2019-01-30T21:11:39.731Z,6.30
2019-01-30T21:14:09.771Z,6.17
2019-01-30T21:16:39.814Z,5.77
2019-01-30T21:19:09.852Z,7.23
2019-01-30T21:21:39.894Z,7.63
2019-01-30T21:24:09.949Z,9.33
2019-01-30T21:26:39.987Z,11.47
2019-01-30T21:29:10.033Z,12.47
2019-01-30T21:31:40.075Z,7.87
2019-01-30T21:34:11.760Z,8.53
2019-01-30T21:36:42.299Z,8.77
2019-01-30T21:39:12.344Z,10.50
2019-01-30T21:41:43.088Z,14.00
2019-01-30T21:44:13.330Z,12.07
2019-01-30T21:46:43.528Z,14.97
2019-01-30T21:49:13.579Z,13.73
2019-01-30T21:51:43.634Z,14.47
2019-01-30T21:54:13.715Z,10.93
2019-01-30T21:56:45.390Z,8.37
2019-01-30T21:59:15.455Z,11.03
2019-01-30T22:01:45.510Z,11.90
2019-01-30T22:04:15.560Z,8.67
2019-01-30T22:06:45.608Z,9.03
2019-01-30T22:09:15.659Z,8.37
2019-01-30T22:11:45.699Z,8.67
2019-01-30T22:14:15.750Z,9.97
2019-01-30T22:16:45.804Z,10.47
2019-01-30T22:19:15.840Z,8.43
2019-01-30T22:21:45.897Z,9.60
2019-01-30T22:24:15.942Z,11.40
2019-01-30T22:26:46.033Z,10.20
2019-01-30T22:29:16.071Z,8.87
2019-01-30T22:31:46.117Z,17.50
2019-01-30T22:34:16.185Z,9.23
2019-01-30T22:36:46.227Z,11.27
2019-01-30T22:39:16.272Z,14.30
2019-01-30T22:41:46.319Z,25.30
2019-01-30T22:44:16.374Z,9.60
2019-01-30T22:46:46.411Z,8.87
2019-01-30T22:49:16.460Z,12.40
2019-01-30T22:51:46.501Z,8.53
2019-01-30T22:54:16.550Z,8.40
2019-01-30T22:56:46.588Z,7.00
2019-01-30T22:59:16.632Z,11.70
2019-01-30T23:01:48.888Z,8.07
2019-01-30T23:04:31.904Z,10.30
2019-01-30T23:07:12.452Z,9.60
2019-01-30T23:10:20.936Z,11.00
2019-01-30T23:13:15.061Z,9.70
2019-01-30T23:15:58.742Z,6.43
2019-01-30T23:18:52.985Z,7.27
2019-01-30T23:21:47.153Z,9.93
2019-01-30T23:24:46.348Z,8.60
2019-01-30T23:27:24.042Z,6.33
2019-01-30T23:30:19.903Z,7.43
2019-01-30T23:33:03.696Z,6.40
2019-01-30T23:35:53.583Z,9.20
2019-01-30T23:38:58.620Z,7.77
2019-01-30T23:41:44.865Z,6.63
2019-01-30T23:44:31.542Z,7.30
2019-01-30T23:47:39.490Z,6.53
2019-01-30T23:50:23.391Z,6.30
2019-01-30T23:53:26.747Z,5.40
2019-01-30T23:56:10.108Z,11.60
2019-01-30T23:59:01.506Z,9.27
